In Rescue
 
Open Full Screen Window  High Contrast Mode
July 24, 2024 4:04 PM CDT
Weather Information
Wind Direction
  ---
Wind Speed
  00 kt (0 mph)
Wind Gust
  00 kt (0 mph)
Altimeter
30.21 in
Visibility
10 SM
Temperature
24° C
75° F
Dewpoint
10° C
50° F
Humidity
41%
1hr Rain Fall
00.00 in.
24hr Rain Fall
00.05 in.
Sky Condition
Scattered @ 5,000 ft
VFR

METAR KMZH 242104Z AUTO 00000KT 10SM SCT050 24/10 A3021 RMK AO2

FAA Disclaimer: The data displayed is for advisory purposes only and is not to be used for flight planning or operations.